METAR AND TAF INFORMATION
METAR FOR ENSD
ADDS - METARS form results

(0859 UTC 21 March 2019)
Data provider http://aviationweather.gov/metar/data/
 
METAR text: ENSD 210850Z 33008KT 9999 VCSH FEW015 SCT027 BKN035 07/04 Q1016 RMK WIND 1138FT 28010KT
Conditions at: ENSD (SANDANE/ANDA , NO) observed 0850 UTC 21 March 2019
Temperature: 7.0°C (45°F)
Dewpoint: 4.0°C (39°F) [RH = 81%]
Pressure (altimeter): 30.00 inches Hg (1016.0 mb)
Winds: from the NNW (330 degrees) at 9 MPH (8 knots; 4.1 m/s)
Visibility: 6 or more miles (10+ km)
Ceiling: 3500 feet AGL
Clouds: few clouds at 1500 feet AGL
scattered clouds at 2700 feet AGL
broken clouds at 3500 feet AGL
Weather: VCSH  (showers in vicinity)

METAR text: ENSD 210820Z 32009KT 9999 -SHRA FEW027 BKN035 06/03 Q1016 RMK WIND 1138FT VRB06KT
Conditions at: ENSD (SANDANE/ANDA , NO) observed 0820 UTC 21 March 2019
Temperature: 6.0°C (43°F)
Dewpoint: 3.0°C (37°F) [RH = 81%]
Pressure (altimeter): 30.00 inches Hg (1016.0 mb)
Winds: from the NW (320 degrees) at 10 MPH (9 knots; 4.6 m/s)
Visibility: 6 or more miles (10+ km)
Ceiling: 3500 feet AGL
Clouds: few clouds at 2700 feet AGL
broken clouds at 3500 feet AGL
Weather: -SHRA  (light rain showers)

 AIRPORT MAP

 RUNWAY INFORMATION
Runway 09 Runway length 2756 ft Runway width 98 ft
Runway elevation 181 ft Runway displaced threshold 0 ft Runway heading 0
Runway 27 Runway length 2756 ft Runway width 98 ft
Runway elevation 179 ft Runway displaced threshold 0 ft Runway heading 0

 AIRPORT FREQUENCIES

 AIRPORT NEAR NAVIGATION AIDS
Type NDB Name Anda Frequency 288 KHZ



Powered by Virtual Airlines Manager [v2.6.2]